CEB787 RPLL-RPME
Flight info
| Callsign | CEB787 |
|---|---|
| Flight time | 1h 16m |
| Altitude | 35000 |
| Route | IPATA2R IPATA B462 TAC W9 BANWA DCT ROLEX TACL2B |
| Aircraft | A21N/M-SDE3FGHIRWY/LB1 |
Departure
| Time | 2026-05-08 13:57 |
|---|---|
| Airport | Ninoy Aquino International Airport (RPLL) |
Arrival
| Time | 2026-05-08 15:13 |
|---|---|
| Airport | Bancasi Airport (RPME) |
| Time | Latitude | Longitude | Altitude | Speed | Heading |
|---|---|---|---|---|---|
| 2026-05-08 13:18 | 14.52049 | 121.01140 | 81 ft | 0 kts | 45° |
| 2026-05-08 13:35 | 14.52047 | 121.01138 | 81 ft | 2 kts | 45° |
| 2026-05-08 13:35 | 14.52036 | 121.01127 | 81 ft | 2 kts | 45° |
| 2026-05-08 13:36 | 14.52025 | 121.01115 | 81 ft | 2 kts | 45° |
| 2026-05-08 13:36 | 14.52015 | 121.01105 | 81 ft | 2 kts | 45° |
| 2026-05-08 13:36 | 14.52004 | 121.01094 | 81 ft | 2 kts | 45° |
| 2026-05-08 13:36 | 14.51994 | 121.01083 | 81 ft | 2 kts | 46° |
| 2026-05-08 13:37 | 14.51986 | 121.01070 | 81 ft | 2 kts | 76° |
| 2026-05-08 13:37 | 14.51985 | 121.01054 | 81 ft | 2 kts | 98° |
| 2026-05-08 13:37 | 14.51989 | 121.01039 | 81 ft | 2 kts | 120° |
| 2026-05-08 13:37 | 14.51994 | 121.01032 | 81 ft | 1 kts | 134° |
| 2026-05-08 13:38 | 14.51999 | 121.01027 | 81 ft | 0 kts | 135° |
| 2026-05-08 13:45 | 14.51998 | 121.01027 | 81 ft | 0 kts | 134° |
| 2026-05-08 13:46 | 14.51988 | 121.01038 | 81 ft | 3 kts | 134° |
| 2026-05-08 13:46 | 14.51958 | 121.01062 | 81 ft | 7 kts | 162° |
| 2026-05-08 13:46 | 14.51905 | 121.01047 | 81 ft | 8 kts | 189° |
| 2026-05-08 13:46 | 14.51848 | 121.01078 | 81 ft | 10 kts | 134° |
| 2026-05-08 13:47 | 14.51789 | 121.01140 | 81 ft | 13 kts | 135° |
| 2026-05-08 13:47 | 14.51718 | 121.01213 | 81 ft | 14 kts | 134° |
| 2026-05-08 13:47 | 14.51644 | 121.01289 | 81 ft | 14 kts | 135° |
| 2026-05-08 13:47 | 14.51572 | 121.01365 | 81 ft | 14 kts | 136° |
| 2026-05-08 13:48 | 14.51499 | 121.01440 | 81 ft | 14 kts | 135° |
| 2026-05-08 13:48 | 14.51427 | 121.01514 | 81 ft | 14 kts | 135° |
| 2026-05-08 13:48 | 14.51356 | 121.01588 | 81 ft | 14 kts | 134° |
| 2026-05-08 13:48 | 14.51284 | 121.01662 | 81 ft | 14 kts | 135° |
| 2026-05-08 13:49 | 14.51211 | 121.01738 | 81 ft | 14 kts | 134° |
| 2026-05-08 13:49 | 14.51138 | 121.01814 | 81 ft | 14 kts | 135° |
| 2026-05-08 13:49 | 14.51066 | 121.01887 | 81 ft | 14 kts | 135° |
| 2026-05-08 13:49 | 14.50999 | 121.01906 | 81 ft | 11 kts | 220° |
| 2026-05-08 13:50 | 14.50951 | 121.01824 | 81 ft | 15 kts | 240° |
| 2026-05-08 13:50 | 14.50892 | 121.01721 | 81 ft | 17 kts | 239° |
| 2026-05-08 13:50 | 14.50858 | 121.01659 | 81 ft | 0 kts | 241° |
| 2026-05-08 13:51 | 14.50851 | 121.01646 | 81 ft | 4 kts | 241° |
| 2026-05-08 13:52 | 14.50826 | 121.01599 | 81 ft | 10 kts | 241° |
| 2026-05-08 13:52 | 14.50782 | 121.01522 | 81 ft | 14 kts | 239° |
| 2026-05-08 13:52 | 14.50723 | 121.01415 | 81 ft | 18 kts | 241° |
| 2026-05-08 13:52 | 14.50652 | 121.01288 | 81 ft | 22 kts | 240° |
| 2026-05-08 13:53 | 14.50573 | 121.01148 | 81 ft | 21 kts | 240° |
| 2026-05-08 13:53 | 14.50504 | 121.01016 | 81 ft | 20 kts | 241° |
| 2026-05-08 13:53 | 14.50431 | 121.00890 | 81 ft | 20 kts | 238° |
| 2026-05-08 13:53 | 14.50362 | 121.00767 | 81 ft | 19 kts | 240° |
| 2026-05-08 13:54 | 14.50296 | 121.00648 | 81 ft | 19 kts | 240° |
| 2026-05-08 13:54 | 14.50250 | 121.00565 | 81 ft | 20 kts | 241° |
| 2026-05-08 13:54 | 14.50206 | 121.00480 | 81 ft | 20 kts | 242° |
| 2026-05-08 13:54 | 14.50137 | 121.00356 | 81 ft | 19 kts | 238° |
| 2026-05-08 13:55 | 14.50045 | 121.00200 | 81 ft | 19 kts | 240° |
| 2026-05-08 13:55 | 14.49972 | 121.00064 | 81 ft | 18 kts | 240° |
| 2026-05-08 13:55 | 14.49870 | 120.99967 | 81 ft | 8 kts | 154° |
| 2026-05-08 13:56 | 14.49814 | 120.99999 | 82 ft | 9 kts | 143° |
| 2026-05-08 13:56 | 14.49811 | 121.00060 | 82 ft | 8 kts | 63° |
| 2026-05-08 13:56 | 14.49843 | 121.00119 | 82 ft | 13 kts | 60° |
| 2026-05-08 13:56 | 14.50018 | 121.00435 | 82 ft | 90 kts | 60° |
| 2026-05-08 13:57 | 14.50452 | 121.01215 | 82 ft | 158 kts | 61° |
| 2026-05-08 13:57 | 14.51069 | 121.02306 | 469 ft | 182 kts | 61° |
| 2026-05-08 13:57 | 14.51710 | 121.03428 | 1240 ft | 185 kts | 60° |
| 2026-05-08 13:57 | 14.52322 | 121.04532 | 2144 ft | 176 kts | 61° |
| 2026-05-08 13:58 | 14.52928 | 121.05621 | 2698 ft | 176 kts | 61° |
| 2026-05-08 13:58 | 14.53537 | 121.06711 | 3221 ft | 178 kts | 61° |
| 2026-05-08 13:58 | 14.54168 | 121.07852 | 3590 ft | 190 kts | 61° |
| 2026-05-08 13:58 | 14.54844 | 121.09091 | 3899 ft | 207 kts | 61° |
| 2026-05-08 13:59 | 14.55587 | 121.10463 | 4147 ft | 229 kts | 61° |
| 2026-05-08 13:59 | 14.56389 | 121.11950 | 4523 ft | 246 kts | 61° |
| 2026-05-08 13:59 | 14.57256 | 121.13567 | 4978 ft | 262 kts | 61° |
| 2026-05-08 13:59 | 14.58128 | 121.15208 | 5677 ft | 266 kts | 61° |
| 2026-05-08 14:00 | 14.59013 | 121.16892 | 6431 ft | 269 kts | 61° |
| 2026-05-08 14:00 | 14.59900 | 121.18591 | 7155 ft | 270 kts | 61° |
| 2026-05-08 14:00 | 14.60792 | 121.20295 | 7921 ft | 272 kts | 61° |
| 2026-05-08 14:00 | 14.61600 | 121.22049 | 8664 ft | 274 kts | 73° |
| 2026-05-08 14:01 | 14.61698 | 121.24012 | 9340 ft | 281 kts | 99° |
| 2026-05-08 14:01 | 14.60910 | 121.25869 | 10017 ft | 288 kts | 121° |
| 2026-05-08 14:01 | 14.59688 | 121.27512 | 10544 ft | 297 kts | 126° |
| 2026-05-08 14:01 | 14.58387 | 121.29126 | 10803 ft | 312 kts | 127° |
| 2026-05-08 14:02 | 14.56963 | 121.30877 | 11019 ft | 325 kts | 127° |
| 2026-05-08 14:02 | 14.55488 | 121.32696 | 11380 ft | 331 kts | 127° |
| 2026-05-08 14:02 | 14.54001 | 121.34541 | 11856 ft | 334 kts | 127° |
| 2026-05-08 14:02 | 14.52514 | 121.36389 | 12322 ft | 336 kts | 129° |
| 2026-05-08 14:03 | 14.50771 | 121.37985 | 12739 ft | 342 kts | 143° |
| 2026-05-08 14:03 | 14.48757 | 121.39315 | 13203 ft | 344 kts | 146° |
| 2026-05-08 14:03 | 14.46706 | 121.40613 | 13637 ft | 346 kts | 145° |
| 2026-05-08 14:03 | 14.44824 | 121.42165 | 14044 ft | 346 kts | 133° |
| 2026-05-08 14:04 | 14.43146 | 121.43980 | 14481 ft | 347 kts | 130° |
| 2026-05-08 14:04 | 14.41513 | 121.45816 | 14886 ft | 349 kts | 130° |
| 2026-05-08 14:04 | 14.39855 | 121.47658 | 15277 ft | 352 kts | 131° |
| 2026-05-08 14:04 | 14.38153 | 121.49518 | 15664 ft | 354 kts | 131° |
| 2026-05-08 14:05 | 14.36449 | 121.51357 | 16041 ft | 356 kts | 131° |
| 2026-05-08 14:05 | 14.34733 | 121.53196 | 16401 ft | 358 kts | 131° |
| 2026-05-08 14:05 | 14.32996 | 121.55049 | 16754 ft | 360 kts | 131° |
| 2026-05-08 14:05 | 14.31242 | 121.56914 | 17105 ft | 362 kts | 132° |
| 2026-05-08 14:06 | 14.29483 | 121.58783 | 17454 ft | 364 kts | 132° |
| 2026-05-08 14:06 | 14.27711 | 121.60662 | 17804 ft | 366 kts | 131° |
| 2026-05-08 14:06 | 14.25929 | 121.62551 | 18154 ft | 367 kts | 132° |
| 2026-05-08 14:06 | 14.24154 | 121.64433 | 18481 ft | 369 kts | 132° |
| 2026-05-08 14:07 | 14.22361 | 121.66333 | 18804 ft | 371 kts | 132° |
| 2026-05-08 14:07 | 14.20537 | 121.68265 | 19134 ft | 373 kts | 132° |
| 2026-05-08 14:07 | 14.18720 | 121.70190 | 19453 ft | 375 kts | 132° |
| 2026-05-08 14:07 | 14.16888 | 121.72128 | 19763 ft | 377 kts | 132° |
| 2026-05-08 14:08 | 14.15072 | 121.74051 | 20069 ft | 380 kts | 132° |
| 2026-05-08 14:08 | 14.13343 | 121.75880 | 20354 ft | 382 kts | 132° |
| 2026-05-08 14:08 | 14.11496 | 121.77835 | 20648 ft | 384 kts | 133° |
| 2026-05-08 14:08 | 14.09611 | 121.79827 | 20950 ft | 386 kts | 132° |
| 2026-05-08 14:09 | 14.07733 | 121.81812 | 21259 ft | 388 kts | 133° |
| 2026-05-08 14:09 | 14.05834 | 121.83821 | 21562 ft | 389 kts | 133° |
| 2026-05-08 14:09 | 14.03936 | 121.85828 | 21854 ft | 391 kts | 133° |
| 2026-05-08 14:09 | 14.02028 | 121.87846 | 22134 ft | 393 kts | 133° |
| 2026-05-08 14:10 | 14.00122 | 121.89858 | 22413 ft | 395 kts | 133° |
| 2026-05-08 14:10 | 13.98176 | 121.91913 | 22694 ft | 397 kts | 133° |
| 2026-05-08 14:10 | 13.96262 | 121.93944 | 22965 ft | 399 kts | 132° |
| 2026-05-08 14:10 | 13.94320 | 121.96021 | 23232 ft | 401 kts | 132° |
| 2026-05-08 14:11 | 13.92360 | 121.98120 | 23498 ft | 403 kts | 132° |
| 2026-05-08 14:11 | 13.90412 | 122.00207 | 23757 ft | 405 kts | 132° |
| 2026-05-08 14:11 | 13.88463 | 122.02294 | 24017 ft | 407 kts | 132° |
| 2026-05-08 14:11 | 13.86491 | 122.04408 | 24285 ft | 408 kts | 132° |
| 2026-05-08 14:12 | 13.84516 | 122.06521 | 24553 ft | 410 kts | 132° |
| 2026-05-08 14:12 | 13.82533 | 122.08645 | 24818 ft | 411 kts | 132° |
| 2026-05-08 14:12 | 13.80561 | 122.10754 | 25078 ft | 412 kts | 132° |
| 2026-05-08 14:12 | 13.78556 | 122.12898 | 25337 ft | 413 kts | 132° |
| 2026-05-08 14:13 | 13.76575 | 122.15017 | 25583 ft | 415 kts | 132° |
| 2026-05-08 14:13 | 13.74549 | 122.17182 | 25829 ft | 416 kts | 132° |
| 2026-05-08 14:13 | 13.72531 | 122.19338 | 26055 ft | 418 kts | 132° |
| 2026-05-08 14:13 | 13.70502 | 122.21508 | 26296 ft | 419 kts | 133° |
| 2026-05-08 14:14 | 13.68504 | 122.23650 | 26570 ft | 419 kts | 133° |
| 2026-05-08 14:14 | 13.66473 | 122.25822 | 26844 ft | 419 kts | 134° |
| 2026-05-08 14:14 | 13.64435 | 122.27998 | 27041 ft | 421 kts | 134° |
| 2026-05-08 14:14 | 13.62382 | 122.30185 | 27259 ft | 423 kts | 134° |
| 2026-05-08 14:15 | 13.60349 | 122.32351 | 27503 ft | 423 kts | 134° |
| 2026-05-08 14:15 | 13.58297 | 122.34537 | 27734 ft | 424 kts | 134° |
| 2026-05-08 14:15 | 13.56253 | 122.36717 | 27966 ft | 425 kts | 134° |
| 2026-05-08 14:15 | 13.54189 | 122.38920 | 28164 ft | 427 kts | 134° |
| 2026-05-08 14:16 | 13.52109 | 122.41137 | 28359 ft | 428 kts | 134° |
| 2026-05-08 14:16 | 13.50048 | 122.43332 | 28549 ft | 430 kts | 134° |
| 2026-05-08 14:16 | 13.47970 | 122.45545 | 28745 ft | 432 kts | 134° |
| 2026-05-08 14:16 | 13.45871 | 122.47779 | 28940 ft | 433 kts | 134° |
| 2026-05-08 14:17 | 13.43776 | 122.50008 | 29118 ft | 435 kts | 135° |
| 2026-05-08 14:17 | 13.41650 | 122.52271 | 29292 ft | 437 kts | 134° |
| 2026-05-08 14:17 | 13.39528 | 122.54528 | 29465 ft | 439 kts | 135° |
| 2026-05-08 14:17 | 13.37424 | 122.56767 | 29637 ft | 441 kts | 135° |
| 2026-05-08 14:18 | 13.35266 | 122.59061 | 29809 ft | 443 kts | 135° |
| 2026-05-08 14:18 | 13.33122 | 122.61340 | 29982 ft | 445 kts | 134° |
| 2026-05-08 14:18 | 13.30969 | 122.63628 | 30155 ft | 447 kts | 134° |
| 2026-05-08 14:18 | 13.28806 | 122.65926 | 30334 ft | 448 kts | 135° |
| 2026-05-08 14:19 | 13.26633 | 122.68236 | 30479 ft | 450 kts | 135° |
| 2026-05-08 14:19 | 13.22275 | 122.72864 | 30734 ft | 455 kts | 135° |
| 2026-05-08 14:19 | 13.20051 | 122.75224 | 30905 ft | 457 kts | 135° |
| 2026-05-08 14:20 | 13.17822 | 122.77589 | 31055 ft | 459 kts | 135° |
| 2026-05-08 14:20 | 13.15618 | 122.79927 | 31203 ft | 460 kts | 135° |
| 2026-05-08 14:20 | 13.13378 | 122.82304 | 31356 ft | 462 kts | 135° |
| 2026-05-08 14:20 | 13.11138 | 122.84682 | 31501 ft | 464 kts | 135° |
| 2026-05-08 14:21 | 13.08911 | 122.87041 | 31659 ft | 465 kts | 135° |
| 2026-05-08 14:21 | 13.06650 | 122.89439 | 31826 ft | 466 kts | 135° |
| 2026-05-08 14:21 | 13.04375 | 122.91847 | 31966 ft | 468 kts | 135° |
| 2026-05-08 14:21 | 13.02119 | 122.94235 | 32150 ft | 468 kts | 135° |
| 2026-05-08 14:22 | 12.99854 | 122.96632 | 32350 ft | 468 kts | 135° |
| 2026-05-08 14:22 | 12.97581 | 122.99039 | 32556 ft | 468 kts | 135° |
| 2026-05-08 14:22 | 12.95294 | 123.01460 | 32759 ft | 468 kts | 135° |
| 2026-05-08 14:22 | 12.93022 | 123.03866 | 32989 ft | 468 kts | 135° |
| 2026-05-08 14:23 | 12.90752 | 123.06267 | 33251 ft | 467 kts | 135° |
| 2026-05-08 14:23 | 12.88466 | 123.08685 | 33514 ft | 466 kts | 135° |
| 2026-05-08 14:23 | 12.86208 | 123.11072 | 33780 ft | 465 kts | 135° |
| 2026-05-08 14:23 | 12.83944 | 123.13465 | 34040 ft | 465 kts | 135° |
| 2026-05-08 14:24 | 12.81661 | 123.15877 | 34291 ft | 464 kts | 135° |
| 2026-05-08 14:24 | 12.79405 | 123.18260 | 34532 ft | 463 kts | 135° |
| 2026-05-08 14:24 | 12.77160 | 123.20631 | 34760 ft | 463 kts | 135° |
| 2026-05-08 14:24 | 12.74898 | 123.23019 | 34867 ft | 463 kts | 136° |
| 2026-05-08 14:25 | 12.72657 | 123.25384 | 34873 ft | 467 kts | 135° |
| 2026-05-08 14:25 | 12.68071 | 123.30220 | 34877 ft | 475 kts | 136° |
| 2026-05-08 14:26 | 12.63451 | 123.35092 | 34878 ft | 480 kts | 136° |
| 2026-05-08 14:26 | 12.58761 | 123.40035 | 34877 ft | 481 kts | 136° |
| 2026-05-08 14:27 | 12.54115 | 123.44932 | 34878 ft | 481 kts | 136° |
| 2026-05-08 14:27 | 12.49411 | 123.49887 | 34881 ft | 481 kts | 136° |
| 2026-05-08 14:28 | 12.44723 | 123.54824 | 34877 ft | 481 kts | 136° |
| 2026-05-08 14:28 | 12.40040 | 123.59751 | 34878 ft | 481 kts | 136° |
| 2026-05-08 14:29 | 12.35473 | 123.64803 | 34879 ft | 482 kts | 131° |
| 2026-05-08 14:29 | 12.31171 | 123.70093 | 34879 ft | 482 kts | 131° |
| 2026-05-08 14:30 | 12.26906 | 123.75369 | 34877 ft | 482 kts | 131° |
| 2026-05-08 14:30 | 12.22630 | 123.80653 | 34875 ft | 483 kts | 131° |
| 2026-05-08 14:31 | 12.18307 | 123.85984 | 34876 ft | 483 kts | 131° |
| 2026-05-08 14:31 | 12.14038 | 123.91249 | 34874 ft | 484 kts | 131° |
| 2026-05-08 14:32 | 12.07581 | 123.99202 | 34876 ft | 482 kts | 131° |
| 2026-05-08 14:32 | 12.03307 | 124.04466 | 34879 ft | 482 kts | 131° |
| 2026-05-08 14:33 | 11.99018 | 124.09747 | 34875 ft | 482 kts | 131° |
| 2026-05-08 14:33 | 11.94702 | 124.15056 | 34877 ft | 483 kts | 131° |
| 2026-05-08 14:34 | 11.90423 | 124.20322 | 34875 ft | 483 kts | 131° |
| 2026-05-08 14:34 | 11.86118 | 124.25613 | 34880 ft | 483 kts | 131° |
| 2026-05-08 14:35 | 11.81821 | 124.30878 | 34886 ft | 483 kts | 131° |
| 2026-05-08 14:35 | 11.77522 | 124.36146 | 34888 ft | 482 kts | 131° |
| 2026-05-08 14:36 | 11.73207 | 124.41434 | 34887 ft | 481 kts | 131° |
| 2026-05-08 14:36 | 11.68906 | 124.46708 | 34893 ft | 481 kts | 131° |
| 2026-05-08 14:37 | 11.64616 | 124.51965 | 34901 ft | 481 kts | 131° |
| 2026-05-08 14:37 | 11.60337 | 124.57208 | 34902 ft | 481 kts | 131° |
| 2026-05-08 14:38 | 11.56044 | 124.62468 | 34906 ft | 481 kts | 131° |
| 2026-05-08 14:38 | 11.51767 | 124.67707 | 34897 ft | 481 kts | 131° |
| 2026-05-08 14:39 | 11.47465 | 124.72963 | 34890 ft | 481 kts | 131° |
| 2026-05-08 14:39 | 11.43180 | 124.78188 | 34885 ft | 480 kts | 131° |
| 2026-05-08 14:40 | 11.38892 | 124.83427 | 34883 ft | 479 kts | 131° |
| 2026-05-08 14:40 | 11.34625 | 124.88641 | 34884 ft | 479 kts | 131° |
| 2026-05-08 14:41 | 11.30345 | 124.93866 | 34883 ft | 479 kts | 131° |
| 2026-05-08 14:41 | 11.25645 | 124.98601 | 34881 ft | 476 kts | 143° |
| 2026-05-08 14:42 | 11.20006 | 125.02221 | 34881 ft | 474 kts | 155° |
| 2026-05-08 14:42 | 11.13812 | 125.04495 | 34882 ft | 471 kts | 168° |
| 2026-05-08 14:43 | 11.07357 | 125.05848 | 34881 ft | 471 kts | 170° |
| 2026-05-08 14:43 | 11.00994 | 125.07115 | 34875 ft | 454 kts | 170° |
| 2026-05-08 14:44 | 10.94783 | 125.08370 | 34873 ft | 452 kts | 169° |
| 2026-05-08 14:44 | 10.88622 | 125.09625 | 34591 ft | 444 kts | 170° |
| 2026-05-08 14:45 | 10.85610 | 125.10239 | 34309 ft | 441 kts | 170° |
| 2026-05-08 14:45 | 10.82600 | 125.10914 | 34020 ft | 442 kts | 167° |
| 2026-05-08 14:45 | 10.79610 | 125.11757 | 33731 ft | 443 kts | 163° |
| 2026-05-08 14:45 | 10.76660 | 125.12698 | 33447 ft | 444 kts | 163° |
| 2026-05-08 14:46 | 10.73692 | 125.13659 | 33159 ft | 445 kts | 163° |
| 2026-05-08 14:46 | 10.70751 | 125.14613 | 32874 ft | 445 kts | 163° |
| 2026-05-08 14:46 | 10.67800 | 125.15570 | 32492 ft | 446 kts | 163° |
| 2026-05-08 14:46 | 10.64843 | 125.16528 | 32036 ft | 446 kts | 163° |
| 2026-05-08 14:47 | 10.61866 | 125.17491 | 31486 ft | 447 kts | 162° |
| 2026-05-08 14:47 | 10.58908 | 125.18449 | 30859 ft | 447 kts | 162° |
| 2026-05-08 14:47 | 10.55928 | 125.19413 | 30226 ft | 446 kts | 162° |
| 2026-05-08 14:47 | 10.52967 | 125.20370 | 29806 ft | 440 kts | 162° |
| 2026-05-08 14:48 | 10.50065 | 125.21310 | 29377 ft | 437 kts | 162° |
| 2026-05-08 14:48 | 10.47180 | 125.22242 | 28929 ft | 433 kts | 162° |
| 2026-05-08 14:48 | 10.44304 | 125.23172 | 28482 ft | 430 kts | 162° |
| 2026-05-08 14:48 | 10.41447 | 125.24095 | 28026 ft | 426 kts | 162° |
| 2026-05-08 14:49 | 10.38643 | 125.25000 | 27550 ft | 423 kts | 162° |
| 2026-05-08 14:49 | 10.35836 | 125.25905 | 27087 ft | 420 kts | 162° |
| 2026-05-08 14:49 | 10.33036 | 125.26810 | 26573 ft | 418 kts | 161° |
| 2026-05-08 14:49 | 10.30261 | 125.27705 | 26054 ft | 417 kts | 161° |
| 2026-05-08 14:50 | 10.27502 | 125.28594 | 25541 ft | 415 kts | 161° |
| 2026-05-08 14:50 | 10.24756 | 125.29480 | 25011 ft | 414 kts | 161° |
| 2026-05-08 14:50 | 10.22027 | 125.30361 | 24499 ft | 412 kts | 160° |
| 2026-05-08 14:50 | 10.19286 | 125.31245 | 23988 ft | 411 kts | 160° |
| 2026-05-08 14:51 | 10.16562 | 125.32124 | 23492 ft | 408 kts | 160° |
| 2026-05-08 14:51 | 10.13848 | 125.33001 | 23003 ft | 407 kts | 160° |
| 2026-05-08 14:51 | 10.11150 | 125.33870 | 22515 ft | 405 kts | 160° |
| 2026-05-08 14:51 | 10.08468 | 125.34735 | 22016 ft | 403 kts | 159° |
| 2026-05-08 14:52 | 10.05776 | 125.35606 | 21525 ft | 401 kts | 159° |
| 2026-05-08 14:52 | 10.00495 | 125.37310 | 20563 ft | 398 kts | 159° |
| 2026-05-08 14:52 | 9.97854 | 125.38161 | 20072 ft | 396 kts | 160° |
| 2026-05-08 14:53 | 9.95218 | 125.39011 | 19595 ft | 394 kts | 160° |
| 2026-05-08 14:53 | 9.92603 | 125.39854 | 19098 ft | 393 kts | 159° |
| 2026-05-08 14:53 | 9.89989 | 125.40697 | 18509 ft | 395 kts | 159° |
| 2026-05-08 14:53 | 9.87364 | 125.41544 | 17878 ft | 397 kts | 159° |
| 2026-05-08 14:54 | 9.84714 | 125.42397 | 17231 ft | 395 kts | 160° |
| 2026-05-08 14:54 | 9.82114 | 125.43236 | 16676 ft | 390 kts | 159° |
| 2026-05-08 14:54 | 9.79573 | 125.44051 | 16452 ft | 375 kts | 160° |
| 2026-05-08 14:54 | 9.77085 | 125.44852 | 16289 ft | 367 kts | 160° |
| 2026-05-08 14:55 | 9.74652 | 125.45637 | 16137 ft | 361 kts | 159° |
| 2026-05-08 14:55 | 9.72269 | 125.46404 | 15969 ft | 359 kts | 159° |
| 2026-05-08 14:55 | 9.69858 | 125.47090 | 15730 ft | 363 kts | 168° |
| 2026-05-08 14:55 | 9.67315 | 125.47092 | 15496 ft | 367 kts | 186° |
| 2026-05-08 14:56 | 9.64824 | 125.46601 | 15274 ft | 366 kts | 190° |
| 2026-05-08 14:56 | 9.62310 | 125.46049 | 15005 ft | 365 kts | 190° |
| 2026-05-08 14:56 | 9.59830 | 125.45504 | 14733 ft | 363 kts | 190° |
| 2026-05-08 14:56 | 9.57342 | 125.44970 | 14456 ft | 361 kts | 189° |
| 2026-05-08 14:57 | 9.54894 | 125.44451 | 14181 ft | 359 kts | 189° |
| 2026-05-08 14:57 | 9.52445 | 125.43938 | 13904 ft | 357 kts | 189° |
| 2026-05-08 14:57 | 9.50006 | 125.43432 | 13618 ft | 354 kts | 189° |
| 2026-05-08 14:57 | 9.47626 | 125.42937 | 13330 ft | 344 kts | 189° |
| 2026-05-08 14:58 | 9.45302 | 125.42454 | 13036 ft | 332 kts | 189° |
| 2026-05-08 14:58 | 9.43062 | 125.41988 | 12741 ft | 321 kts | 189° |
| 2026-05-08 14:58 | 9.40912 | 125.41542 | 12459 ft | 314 kts | 189° |
| 2026-05-08 14:58 | 9.38780 | 125.41097 | 12173 ft | 309 kts | 189° |
| 2026-05-08 14:59 | 9.36688 | 125.40662 | 11898 ft | 302 kts | 189° |
| 2026-05-08 14:59 | 9.32684 | 125.39829 | 11452 ft | 285 kts | 189° |
| 2026-05-08 14:59 | 9.30757 | 125.39429 | 11116 ft | 284 kts | 189° |
| 2026-05-08 15:00 | 9.28814 | 125.39027 | 10757 ft | 283 kts | 189° |
| 2026-05-08 15:00 | 9.26888 | 125.38627 | 10406 ft | 282 kts | 189° |
| 2026-05-08 15:00 | 9.24957 | 125.38226 | 10073 ft | 280 kts | 189° |
| 2026-05-08 15:00 | 9.23061 | 125.37833 | 9946 ft | 278 kts | 189° |
| 2026-05-08 15:01 | 9.21143 | 125.37436 | 9762 ft | 280 kts | 189° |
| 2026-05-08 15:01 | 9.19223 | 125.37069 | 9519 ft | 276 kts | 182° |
| 2026-05-08 15:01 | 9.17368 | 125.37363 | 9252 ft | 267 kts | 148° |
| 2026-05-08 15:01 | 9.16034 | 125.38613 | 9026 ft | 261 kts | 121° |
| 2026-05-08 15:02 | 9.15061 | 125.40159 | 8794 ft | 260 kts | 120° |
| 2026-05-08 15:02 | 9.14061 | 125.41682 | 8557 ft | 259 kts | 121° |
| 2026-05-08 15:02 | 9.13034 | 125.43193 | 8317 ft | 258 kts | 122° |
| 2026-05-08 15:02 | 9.12009 | 125.44671 | 8081 ft | 258 kts | 123° |
| 2026-05-08 15:03 | 9.10958 | 125.46168 | 7840 ft | 257 kts | 123° |
| 2026-05-08 15:03 | 9.09928 | 125.47626 | 7603 ft | 256 kts | 123° |
| 2026-05-08 15:03 | 9.08884 | 125.49099 | 7363 ft | 255 kts | 123° |
| 2026-05-08 15:03 | 9.07847 | 125.50559 | 7125 ft | 254 kts | 123° |
| 2026-05-08 15:04 | 9.06826 | 125.51996 | 6893 ft | 254 kts | 123° |
| 2026-05-08 15:04 | 9.05788 | 125.53456 | 6655 ft | 252 kts | 123° |
| 2026-05-08 15:04 | 9.04763 | 125.54900 | 6419 ft | 252 kts | 123° |
| 2026-05-08 15:04 | 9.03738 | 125.56341 | 6182 ft | 251 kts | 123° |
| 2026-05-08 15:05 | 9.02721 | 125.57767 | 5946 ft | 250 kts | 123° |
| 2026-05-08 15:05 | 9.01708 | 125.59188 | 5711 ft | 249 kts | 123° |
| 2026-05-08 15:05 | 9.00693 | 125.60616 | 5472 ft | 248 kts | 123° |
| 2026-05-08 15:05 | 8.99693 | 125.62021 | 5235 ft | 247 kts | 123° |
| 2026-05-08 15:06 | 8.98680 | 125.63446 | 4995 ft | 246 kts | 123° |
| 2026-05-08 15:06 | 8.97684 | 125.64844 | 4758 ft | 246 kts | 123° |
| 2026-05-08 15:06 | 8.96680 | 125.66256 | 4518 ft | 245 kts | 123° |
| 2026-05-08 15:06 | 8.95687 | 125.67651 | 4277 ft | 242 kts | 123° |
| 2026-05-08 15:07 | 8.94713 | 125.69016 | 4066 ft | 235 kts | 123° |
| 2026-05-08 15:07 | 8.93729 | 125.70319 | 3902 ft | 229 kts | 133° |
| 2026-05-08 15:07 | 8.92351 | 125.71085 | 3645 ft | 231 kts | 168° |
| 2026-05-08 15:07 | 8.90773 | 125.70949 | 3511 ft | 234 kts | 201° |
| 2026-05-08 15:08 | 8.89287 | 125.70209 | 3517 ft | 237 kts | 206° |
| 2026-05-08 15:08 | 8.87796 | 125.69422 | 3399 ft | 236 kts | 206° |
| 2026-05-08 15:08 | 8.86441 | 125.68516 | 3360 ft | 234 kts | 230° |
| 2026-05-08 15:08 | 8.85858 | 125.67086 | 3388 ft | 213 kts | 270° |
| 2026-05-08 15:09 | 8.86181 | 125.65680 | 3301 ft | 200 kts | 299° |
| 2026-05-08 15:09 | 8.86851 | 125.64445 | 3173 ft | 198 kts | 302° |
| 2026-05-08 15:09 | 8.87518 | 125.63242 | 3044 ft | 197 kts | 302° |
| 2026-05-08 15:09 | 8.88173 | 125.62015 | 2901 ft | 192 kts | 301° |
| 2026-05-08 15:10 | 8.88754 | 125.60878 | 2721 ft | 174 kts | 301° |
| 2026-05-08 15:10 | 8.89278 | 125.59828 | 2524 ft | 160 kts | 300° |
| 2026-05-08 15:10 | 8.89759 | 125.58858 | 2292 ft | 149 kts | 300° |
| 2026-05-08 15:10 | 8.90226 | 125.57918 | 2117 ft | 148 kts | 300° |
| 2026-05-08 15:11 | 8.90683 | 125.56997 | 1929 ft | 147 kts | 300° |
| 2026-05-08 15:11 | 8.91143 | 125.56066 | 1735 ft | 146 kts | 300° |
| 2026-05-08 15:11 | 8.91597 | 125.55144 | 1541 ft | 146 kts | 300° |
| 2026-05-08 15:11 | 8.92052 | 125.54222 | 1347 ft | 145 kts | 299° |
| 2026-05-08 15:12 | 8.92506 | 125.53300 | 1150 ft | 145 kts | 299° |
| 2026-05-08 15:12 | 8.92947 | 125.52400 | 959 ft | 144 kts | 299° |
| 2026-05-08 15:12 | 8.93396 | 125.51489 | 767 ft | 143 kts | 298° |
| 2026-05-08 15:12 | 8.93844 | 125.50585 | 575 ft | 142 kts | 297° |
| 2026-05-08 15:13 | 8.94272 | 125.49699 | 384 ft | 141 kts | 296° |
| 2026-05-08 15:13 | 8.94701 | 125.48810 | 193 ft | 140 kts | 294° |
| 2026-05-08 15:13 | 8.95106 | 125.47978 | 149 ft | 104 kts | 296° |
| 2026-05-08 15:13 | 8.95305 | 125.47561 | 149 ft | 38 kts | 298° |
| 2026-05-08 15:14 | 8.95420 | 125.47336 | 149 ft | 33 kts | 297° |
| 2026-05-08 15:14 | 8.95511 | 125.47150 | 149 ft | 19 kts | 294° |
| 2026-05-08 15:14 | 8.95566 | 125.47046 | 149 ft | 14 kts | 313° |
| 2026-05-08 15:14 | 8.95599 | 125.47001 | 149 ft | 3 kts | 196° |
| 2026-05-08 15:15 | 8.95572 | 125.47029 | 149 ft | 6 kts | 124° |
| 2026-05-08 15:15 | 8.95547 | 125.47076 | 149 ft | 8 kts | 116° |
| 2026-05-08 15:15 | 8.95519 | 125.47133 | 149 ft | 9 kts | 117° |
| 2026-05-08 15:15 | 8.95485 | 125.47199 | 149 ft | 11 kts | 116° |
| 2026-05-08 15:16 | 8.95446 | 125.47281 | 149 ft | 14 kts | 116° |
| 2026-05-08 15:16 | 8.95399 | 125.47378 | 149 ft | 16 kts | 116° |
| 2026-05-08 15:16 | 8.95344 | 125.47485 | 149 ft | 17 kts | 117° |
| 2026-05-08 15:16 | 8.95291 | 125.47591 | 149 ft | 15 kts | 116° |
| 2026-05-08 15:17 | 8.95244 | 125.47689 | 149 ft | 15 kts | 116° |
| 2026-05-08 15:17 | 8.95195 | 125.47788 | 149 ft | 16 kts | 116° |
| 2026-05-08 15:17 | 8.95146 | 125.47890 | 149 ft | 15 kts | 115° |
| 2026-05-08 15:17 | 8.95099 | 125.47986 | 149 ft | 14 kts | 116° |
| 2026-05-08 15:18 | 8.95062 | 125.48062 | 149 ft | 8 kts | 116° |
| 2026-05-08 15:18 | 8.95018 | 125.48093 | 149 ft | 8 kts | 163° |
| 2026-05-08 15:18 | 8.94970 | 125.48108 | 149 ft | 5 kts | 163° |
| 2026-05-08 15:18 | 8.94944 | 125.48129 | 149 ft | 5 kts | 121° |
| 2026-05-08 15:19 | 8.94926 | 125.48161 | 149 ft | 5 kts | 118° |
| 2026-05-08 15:19 | 8.94908 | 125.48196 | 149 ft | 4 kts | 122° |
| 2026-05-08 15:19 | 8.94891 | 125.48195 | 149 ft | 3 kts | 226° |
| 2026-05-08 15:19 | 8.94878 | 125.48175 | 149 ft | 2 kts | 239° |
| 2026-05-08 15:20 | 8.94871 | 125.48165 | 149 ft | 0 kts | 238° |
| 2026-05-08 15:20 | 8.94870 | 125.48162 | 149 ft | 0 kts | 237° |